Huvudsida
METAR-TAF:

METAR-TAF

Flygplatser :

Røros flygplats

Röros, Norge

latitud: 62-35N, longitud: 011-21E, höjd: 626 m

Aktuellt väderrapport

Denna rapport gjordes för 35 minuter sedan, klockan 02:20 UTC
Vind 10 kt från väst/nordväst
Temperatur 2°C
Fuktighet 100%
Tryck 1020 hPa
Sikt 10 km eller mer
lätta regnskurar

METAR: ENRO 190220Z AUTO 29010KT 9999NDV -SHRA FEW015/// SCT031/// BKN049/// 02/02 Q1020

Tid: 04:55 (02:55 UTC)

Väderprognos

Denna rapport gjordes för 55 minuter sedan, klockan 02:00 UTC
Prognos gäller från 19 kl. 03 UTC till 19 kl. 12 UTC
Vind 8 kt från väst/nordväst
Sikt 10 km eller mer
Spridda moln på en höjd av 2000 ft
Brutna moln på en höjd av 3000 ft
Sannolikhet 40% :
Temporärt
från 19 kl. 03 UTC till 19 kl. 12 UTC
Sikt: 4000 m
Brutna moln på en höjd av 1400 ft, Cumulonimbus.
regnskurar, snö

TAF: ENRO 190200Z 1903/1912 30008KT 9999 SCT020 BKN030 PROB40 TEMPO 1903/1912 4000 SHRASN BKN014CB

Aktuella väderrapporter och prognoser från 4000 flygplatser (METAR- och TAF-rapporter).

De tillgängliga stationerna syns som gula och röda prickar på kartan.

För musen över prickarna för att se namnen på stationerna.

Klicka sedan för att få väderrapporter och prognoser.

För att ändra kartan: Klicka på de gröna knapparna med ett svart kors på för att zooma in; den gröna knappen med ett streck på för att zooma ut; eller på de gröna pilarna för angränsande kartor.


METAR-TAF: